METAR Data
IDs: Format: Raw Decoded Include TAF

Data at: 0214 UTC 29 May 2022

KGUS 290156Z 18006KT 10SM CLR 18/13 A2988 RMK AO2A SLP119 T01760129 $